sensor_id;sensor_type;location;lat;lon;timestamp;pressure;altitude;pressure_sealevel;temperature;humidity
29239;BME280;16267;48.194;11.546;2023-03-15T00:01:14;95256.78;;;5.06;77.02
29239;BME280;16267;48.194;11.546;2023-03-15T00:03:45;95257.16;;;5.08;77.27
29239;BME280;16267;48.194;11.546;2023-03-15T00:06:12;95253.34;;;5.09;77.46
29239;BME280;16267;48.194;11.546;2023-03-15T00:08:38;95252.19;;;5.07;77.53
29239;BME280;16267;48.194;11.546;2023-03-15T00:11:05;95252.22;;;5.03;77.94
29239;BME280;16267;48.194;11.546;2023-03-15T00:13:32;95259.44;;;4.96;78.91
29239;BME280;16267;48.194;11.546;2023-03-15T00:16:00;95246.91;;;4.89;79.20
29239;BME280;16267;48.194;11.546;2023-03-15T00:18:28;95254.91;;;4.96;79.92
29239;BME280;16267;48.194;11.546;2023-03-15T00:20:54;95256.38;;;5.04;80.42
29239;BME280;16267;48.194;11.546;2023-03-15T00:23:20;95264.34;;;5.04;81.12
29239;BME280;16267;48.194;11.546;2023-03-15T00:25:48;95261.31;;;5.09;81.72
29239;BME280;16267;48.194;11.546;2023-03-15T00:28:15;95260.19;;;5.14;82.03
29239;BME280;16267;48.194;11.546;2023-03-15T00:30:41;95268.91;;;5.18;81.14
29239;BME280;16267;48.194;11.546;2023-03-15T00:33:08;95264.72;;;5.21;81.79
29239;BME280;16267;48.194;11.546;2023-03-15T00:35:40;95278.81;;;5.25;83.04
29239;BME280;16267;48.194;11.546;2023-03-15T00:38:07;95281.47;;;5.10;84.56
29239;BME280;16267;48.194;11.546;2023-03-15T00:40:35;95276.53;;;4.95;84.64
29239;BME280;16267;48.194;11.546;2023-03-15T00:43:08;95283.75;;;5.01;84.12
29239;BME280;16267;48.194;11.546;2023-03-15T00:45:35;95310.75;;;4.96;83.24
29239;BME280;16267;48.194;11.546;2023-03-15T00:48:01;95324.38;;;4.80;81.50
29239;BME280;16267;48.194;11.546;2023-03-15T00:50:27;95320.19;;;4.76;83.10
29239;BME280;16267;48.194;11.546;2023-03-15T00:52:53;95328.19;;;4.68;81.82
29239;BME280;16267;48.194;11.546;2023-03-15T00:55:19;95333.44;;;4.51;79.13
29239;BME280;16267;48.194;11.546;2023-03-15T00:57:46;95330.31;;;4.23;81.25
29239;BME280;16267;48.194;11.546;2023-03-15T01:00:17;95326.09;;;4.08;80.54
29239;BME280;16267;48.194;11.546;2023-03-15T01:02:45;95320.63;;;3.79;83.44
29239;BME280;16267;48.194;11.546;2023-03-15T01:05:11;95320.63;;;3.76;85.30
29239;BME280;16267;48.194;11.546;2023-03-15T01:07:38;95322.16;;;3.77;85.35
29239;BME280;16267;48.194;11.546;2023-03-15T01:10:05;95325.03;;;3.47;85.38
29239;BME280;16267;48.194;11.546;2023-03-15T01:12:32;95320.09;;;3.49;86.35
29239;BME280;16267;48.194;11.546;2023-03-15T01:15:00;95321.22;;;3.48;87.28
29239;BME280;16267;48.194;11.546;2023-03-15T01:17:28;95311.31;;;3.38;87.03
29239;BME280;16267;48.194;11.546;2023-03-15T01:19:53;95306.72;;;3.27;87.85
29239;BME280;16267;48.194;11.546;2023-03-15T01:22:19;95303.72;;;3.36;88.78
29239;BME280;16267;48.194;11.546;2023-03-15T01:24:45;95296.78;;;3.21;88.68
29239;BME280;16267;48.194;11.546;2023-03-15T01:27:11;95289.63;;;3.25;88.86
29239;BME280;16267;48.194;11.546;2023-03-15T01:29:36;95292.63;;;3.16;88.66
29239;BME280;16267;48.194;11.546;2023-03-15T01:32:02;95288.47;;;3.22;89.19
29239;BME280;16267;48.194;11.546;2023-03-15T01:34:28;95293.81;;;3.26;88.70
29239;BME280;16267;48.194;11.546;2023-03-15T01:36:54;95264.28;;;3.31;87.94
29239;BME280;16267;48.194;11.546;2023-03-15T01:39:20;95257.06;;;3.24;88.91
29239;BME280;16267;48.194;11.546;2023-03-15T01:41:46;95276.28;;;3.10;89.10
29239;BME280;16267;48.194;11.546;2023-03-15T01:44:17;95310.34;;;3.08;90.39
29239;BME280;16267;48.194;11.546;2023-03-15T01:46:44;95301.22;;;3.02;91.24
29239;BME280;16267;48.194;11.546;2023-03-15T01:49:30;95297.88;;;3.12;91.81
29239;BME280;16267;48.194;11.546;2023-03-15T01:52:02;95303.56;;;3.11;91.16
29239;BME280;16267;48.194;11.546;2023-03-15T01:57:11;95311.88;;;3.09;92.09
29239;BME280;16267;48.194;11.546;2023-03-15T01:59:45;95316.00;;;3.03;93.63
29239;BME280;16267;48.194;11.546;2023-03-15T02:02:12;95330.72;;;2.97;93.26
29239;BME280;16267;48.194;11.546;2023-03-15T02:04:49;95342.63;;;2.77;94.16
29239;BME280;16267;48.194;11.546;2023-03-15T02:07:17;95334.34;;;2.78;95.01
29239;BME280;16267;48.194;11.546;2023-03-15T02:10:00;95338.56;;;2.86;95.89
29239;BME280;16267;48.194;11.546;2023-03-15T02:12:31;95340.06;;;2.84;95.43
29239;BME280;16267;48.194;11.546;2023-03-15T02:15:00;95338.47;;;2.76;95.81
29239;BME280;16267;48.194;11.546;2023-03-15T02:17:42;95338.03;;;2.70;97.15
29239;BME280;16267;48.194;11.546;2023-03-15T02:20:50;95335.41;;;2.74;97.22
29239;BME280;16267;48.194;11.546;2023-03-15T02:23:20;95343.75;;;2.72;97.25
29239;BME280;16267;48.194;11.546;2023-03-15T02:28:46;95348.66;;;2.70;98.76
29239;BME280;16267;48.194;11.546;2023-03-15T02:31:13;95363.38;;;2.67;99.02
29239;BME280;16267;48.194;11.546;2023-03-15T02:33:49;95357.72;;;2.69;98.96
29239;BME280;16267;48.194;11.546;2023-03-15T02:36:27;95363.28;;;2.57;100.00
29239;BME280;16267;48.194;11.546;2023-03-15T02:38:54;95369.72;;;2.59;100.00
29239;BME280;16267;48.194;11.546;2023-03-15T02:44:29;95385.59;;;2.56;100.00
29239;BME280;16267;48.194;11.546;2023-03-15T02:47:06;95398.53;;;2.61;100.00
29239;BME280;16267;48.194;11.546;2023-03-15T02:49:38;95409.91;;;2.65;100.00
29239;BME280;16267;48.194;11.546;2023-03-15T02:52:05;95406.06;;;2.59;100.00
29239;BME280;16267;48.194;11.546;2023-03-15T02:54:31;95418.28;;;2.37;99.42
29239;BME280;16267;48.194;11.546;2023-03-15T02:57:01;95440.66;;;2.39;99.94
29239;BME280;16267;48.194;11.546;2023-03-15T02:59:27;95455.41;;;2.40;99.51
29239;BME280;16267;48.194;11.546;2023-03-15T03:01:53;95469.88;;;2.46;99.60
29239;BME280;16267;48.194;11.546;2023-03-15T03:04:19;95482.03;;;2.51;100.00
29239;BME280;16267;48.194;11.546;2023-03-15T03:06:45;95499.00;;;2.46;99.04
29239;BME280;16267;48.194;11.546;2023-03-15T03:09:11;95499.78;;;2.47;98.16
29239;BME280;16267;48.194;11.546;2023-03-15T03:11:37;95512.25;;;2.46;99.03
29239;BME280;16267;48.194;11.546;2023-03-15T03:14:04;95525.16;;;2.48;98.58
29239;BME280;16267;48.194;11.546;2023-03-15T03:16:30;95527.44;;;2.50;97.89
29239;BME280;16267;48.194;11.546;2023-03-15T03:18:58;95537.63;;;2.48;98.11
29239;BME280;16267;48.194;11.546;2023-03-15T03:21:23;95549.03;;;2.52;97.21
29239;BME280;16267;48.194;11.546;2023-03-15T03:23:49;95559.59;;;2.48;96.63
29239;BME280;16267;48.194;11.546;2023-03-15T03:26:17;95567.19;;;2.50;96.42
29239;BME280;16267;48.194;11.546;2023-03-15T03:28:46;95573.09;;;2.39;95.79
29239;BME280;16267;48.194;11.546;2023-03-15T03:31:22;95585.63;;;2.42;96.69
29239;BME280;16267;48.194;11.546;2023-03-15T03:33:48;95594.22;;;2.36;96.51
29239;BME280;16267;48.194;11.546;2023-03-15T03:36:16;95594.28;;;2.39;97.10
29239;BME280;16267;48.194;11.546;2023-03-15T03:38:44;95613.28;;;2.45;97.59
29239;BME280;16267;48.194;11.546;2023-03-15T03:41:12;95618.53;;;2.41;96.42
29239;BME280;16267;48.194;11.546;2023-03-15T03:43:39;95621.34;;;2.29;96.96
29239;BME280;16267;48.194;11.546;2023-03-15T03:46:05;95625.41;;;2.23;97.12
29239;BME280;16267;48.194;11.546;2023-03-15T03:48:31;95636.44;;;2.25;97.54
29239;BME280;16267;48.194;11.546;2023-03-15T03:50:57;95648.22;;;2.28;97.85
29239;BME280;16267;48.194;11.546;2023-03-15T03:53:24;95646.38;;;2.32;98.21
29239;BME280;16267;48.194;11.546;2023-03-15T03:55:50;95654.31;;;2.32;97.54
29239;BME280;16267;48.194;11.546;2023-03-15T03:58:15;95665.31;;;2.34;97.07
29239;BME280;16267;48.194;11.546;2023-03-15T04:00:42;95673.44;;;2.21;96.20
29239;BME280;16267;48.194;11.546;2023-03-15T04:03:11;95673.50;;;2.25;96.87
29239;BME280;16267;48.194;11.546;2023-03-15T04:05:37;95679.91;;;2.24;96.32
29239;BME280;16267;48.194;11.546;2023-03-15T04:08:03;95684.38;;;2.20;95.62
29239;BME280;16267;48.194;11.546;2023-03-15T04:10:29;95694.59;;;2.21;95.81
29239;BME280;16267;48.194;11.546;2023-03-15T04:13:00;95698.34;;;2.17;95.82
29239;BME280;16267;48.194;11.546;2023-03-15T04:15:26;95708.63;;;2.22;96.29
29239;BME280;16267;48.194;11.546;2023-03-15T04:17:52;95720.00;;;2.22;95.61
29239;BME280;16267;48.194;11.546;2023-03-15T04:20:25;95712.81;;;2.23;95.74
29239;BME280;16267;48.194;11.546;2023-03-15T04:22:52;95726.47;;;2.25;96.45
29239;BME280;16267;48.194;11.546;2023-03-15T04:25:19;95720.00;;;2.22;95.63
29239;BME280;16267;48.194;11.546;2023-03-15T04:27:45;95727.81;;;2.15;96.04
29239;BME280;16267;48.194;11.546;2023-03-15T04:30:26;95732.75;;;2.17;95.64
29239;BME280;16267;48.194;11.546;2023-03-15T04:32:56;95741.75;;;2.12;95.05
29239;BME280;16267;48.194;11.546;2023-03-15T04:35:30;95747.41;;;2.11;96.11
29239;BME280;16267;48.194;11.546;2023-03-15T04:38:00;95750.34;;;2.06;94.41
29239;BME280;16267;48.194;11.546;2023-03-15T04:40:26;95764.44;;;2.13;95.61
29239;BME280;16267;48.194;11.546;2023-03-15T04:42:53;95769.25;;;2.08;95.41
29239;BME280;16267;48.194;11.546;2023-03-15T04:45:23;95770.53;;;2.14;95.25
29239;BME280;16267;48.194;11.546;2023-03-15T04:47:53;95779.50;;;2.09;94.39
29239;BME280;16267;48.194;11.546;2023-03-15T04:50:21;95779.38;;;2.02;94.09
29239;BME280;16267;48.194;11.546;2023-03-15T04:52:47;95785.22;;;2.11;94.87
29239;BME280;16267;48.194;11.546;2023-03-15T04:55:14;95794.28;;;1.91;95.12
29239;BME280;16267;48.194;11.546;2023-03-15T04:57:40;95800.06;;;1.96;95.89
29239;BME280;16267;48.194;11.546;2023-03-15T05:00:08;95802.69;;;1.96;96.28
29239;BME280;16267;48.194;11.546;2023-03-15T05:02:35;95807.66;;;1.98;96.22
29239;BME280;16267;48.194;11.546;2023-03-15T05:05:10;95814.47;;;1.99;95.33
29239;BME280;16267;48.194;11.546;2023-03-15T05:07:37;95815.53;;;1.94;95.62
29239;BME280;16267;48.194;11.546;2023-03-15T05:10:05;95820.19;;;2.01;96.42
29239;BME280;16267;48.194;11.546;2023-03-15T05:12:31;95827.31;;;1.97;96.41
29239;BME280;16267;48.194;11.546;2023-03-15T05:14:58;95831.47;;;1.78;98.24
29239;BME280;16267;48.194;11.546;2023-03-15T05:17:24;95844.78;;;1.66;96.26
29239;BME280;16267;48.194;11.546;2023-03-15T05:19:50;95839.72;;;1.77;97.76
29239;BME280;16267;48.194;11.546;2023-03-15T05:22:17;95846.09;;;1.72;97.26
29239;BME280;16267;48.194;11.546;2023-03-15T05:24:47;95863.97;;;1.79;97.10
29239;BME280;16267;48.194;11.546;2023-03-15T05:27:13;95860.50;;;1.75;96.99
29239;BME280;16267;48.194;11.546;2023-03-15T05:29:39;95863.22;;;1.78;97.29
29239;BME280;16267;48.194;11.546;2023-03-15T05:32:05;95875.06;;;1.85;97.87
29239;BME280;16267;48.194;11.546;2023-03-15T05:34:31;95877.13;;;1.91;98.04
29239;BME280;16267;48.194;11.546;2023-03-15T05:36:59;95879.81;;;1.95;96.73
29239;BME280;16267;48.194;11.546;2023-03-15T05:39:28;95886.56;;;1.92;96.41
29239;BME280;16267;48.194;11.546;2023-03-15T05:41:54;95885.72;;;1.88;94.97
29239;BME280;16267;48.194;11.546;2023-03-15T05:44:20;95888.97;;;1.97;96.88
29239;BME280;16267;48.194;11.546;2023-03-15T05:46:47;95892.00;;;1.99;95.51
29239;BME280;16267;48.194;11.546;2023-03-15T05:49:13;95899.63;;;2.01;94.84
29239;BME280;16267;48.194;11.546;2023-03-15T05:51:38;95907.75;;;1.92;94.39
29239;BME280;16267;48.194;11.546;2023-03-15T05:54:04;95910.91;;;1.98;94.79
29239;BME280;16267;48.194;11.546;2023-03-15T05:56:30;95916.13;;;1.94;94.17
29239;BME280;16267;48.194;11.546;2023-03-15T05:58:56;95923.81;;;1.84;94.75
29239;BME280;16267;48.194;11.546;2023-03-15T06:01:22;95924.09;;;1.78;95.17
29239;BME280;16267;48.194;11.546;2023-03-15T06:03:47;95941.66;;;1.71;95.33
29239;BME280;16267;48.194;11.546;2023-03-15T06:06:13;95933.16;;;1.77;96.22
29239;BME280;16267;48.194;11.546;2023-03-15T06:08:39;95943.38;;;1.79;95.77
29239;BME280;16267;48.194;11.546;2023-03-15T06:11:05;95934.59;;;1.75;94.63
29239;BME280;16267;48.194;11.546;2023-03-15T06:13:30;95948.16;;;1.58;95.07
29239;BME280;16267;48.194;11.546;2023-03-15T06:15:56;95950.13;;;1.61;96.11
29239;BME280;16267;48.194;11.546;2023-03-15T06:18:22;95956.53;;;1.44;95.44
29239;BME280;16267;48.194;11.546;2023-03-15T06:20:48;95965.16;;;1.56;96.31
29239;BME280;16267;48.194;11.546;2023-03-15T06:23:14;95964.63;;;1.51;95.77
29239;BME280;16267;48.194;11.546;2023-03-15T06:25:40;95960.97;;;1.55;96.43
29239;BME280;16267;48.194;11.546;2023-03-15T06:28:05;95961.50;;;1.61;95.91
29239;BME280;16267;48.194;11.546;2023-03-15T06:30:32;95967.53;;;1.62;95.04
29239;BME280;16267;48.194;11.546;2023-03-15T06:32:58;95962.59;;;1.60;96.34
29239;BME280;16267;48.194;11.546;2023-03-15T06:35:23;95967.19;;;1.63;96.10
29239;BME280;16267;48.194;11.546;2023-03-15T06:37:49;95969.31;;;1.58;96.29
29239;BME280;16267;48.194;11.546;2023-03-15T06:40:17;95971.13;;;1.53;96.83
29239;BME280;16267;48.194;11.546;2023-03-15T06:42:43;95976.69;;;1.64;97.15
29239;BME280;16267;48.194;11.546;2023-03-15T06:45:09;95978.63;;;1.67;96.87
29239;BME280;16267;48.194;11.546;2023-03-15T06:47:35;95983.13;;;1.83;97.28
29239;BME280;16267;48.194;11.546;2023-03-15T06:50:01;95986.72;;;1.90;97.06
29239;BME280;16267;48.194;11.546;2023-03-15T06:52:28;95991.06;;;1.98;96.28
29239;BME280;16267;48.194;11.546;2023-03-15T06:54:54;95989.28;;;1.71;94.02
29239;BME280;16267;48.194;11.546;2023-03-15T06:57:20;95993.22;;;1.93;95.18
29239;BME280;16267;48.194;11.546;2023-03-15T06:59:45;95991.44;;;1.97;94.20
29239;BME280;16267;48.194;11.546;2023-03-15T07:02:17;95993.91;;;2.06;94.39
29239;BME280;16267;48.194;11.546;2023-03-15T07:04:43;95998.56;;;2.12;94.43
29239;BME280;16267;48.194;11.546;2023-03-15T07:07:10;95996.84;;;2.20;94.06
29239;BME280;16267;48.194;11.546;2023-03-15T07:09:37;96004.88;;;2.23;94.03
29239;BME280;16267;48.194;11.546;2023-03-15T07:12:03;96012.28;;;2.34;94.09
29239;BME280;16267;48.194;11.546;2023-03-15T07:14:30;96013.81;;;2.35;93.44
29239;BME280;16267;48.194;11.546;2023-03-15T07:16:57;96016.38;;;2.31;93.83
29239;BME280;16267;48.194;11.546;2023-03-15T07:19:23;96009.59;;;2.14;93.29
29239;BME280;16267;48.194;11.546;2023-03-15T07:21:49;96003.53;;;2.14;92.79
29239;BME280;16267;48.194;11.546;2023-03-15T07:24:14;96022.47;;;2.16;92.88
29239;BME280;16267;48.194;11.546;2023-03-15T07:26:40;96018.47;;;2.22;92.78
29239;BME280;16267;48.194;11.546;2023-03-15T07:29:06;96033.22;;;2.39;93.92
29239;BME280;16267;48.194;11.546;2023-03-15T07:31:31;96035.94;;;2.42;93.08
29239;BME280;16267;48.194;11.546;2023-03-15T07:33:57;96032.75;;;2.53;93.91
29239;BME280;16267;48.194;11.546;2023-03-15T07:36:23;96024.44;;;2.54;93.46
29239;BME280;16267;48.194;11.546;2023-03-15T07:38:49;96026.75;;;2.56;91.39
29239;BME280;16267;48.194;11.546;2023-03-15T07:41:15;96025.69;;;2.60;91.82
29239;BME280;16267;48.194;11.546;2023-03-15T07:43:40;96028.50;;;2.48;89.25
29239;BME280;16267;48.194;11.546;2023-03-15T07:46:06;96036.19;;;2.73;90.24
29239;BME280;16267;48.194;11.546;2023-03-15T07:48:32;96038.81;;;2.88;90.97
29239;BME280;16267;48.194;11.546;2023-03-15T07:50:58;96038.94;;;2.96;90.26
29239;BME280;16267;48.194;11.546;2023-03-15T07:53:24;96036.69;;;2.98;86.80
29239;BME280;16267;48.194;11.546;2023-03-15T07:55:50;96040.25;;;3.05;88.19
29239;BME280;16267;48.194;11.546;2023-03-15T07:58:16;96038.31;;;3.02;87.66
29239;BME280;16267;48.194;11.546;2023-03-15T08:00:42;96041.44;;;3.08;87.48
29239;BME280;16267;48.194;11.546;2023-03-15T08:03:08;96037.47;;;3.18;87.27
29239;BME280;16267;48.194;11.546;2023-03-15T08:05:35;96030.59;;;3.36;88.58
29239;BME280;16267;48.194;11.546;2023-03-15T08:08:01;96029.66;;;3.48;88.61
29239;BME280;16267;48.194;11.546;2023-03-15T08:10:27;96032.84;;;3.34;84.17
29239;BME280;16267;48.194;11.546;2023-03-15T08:12:53;96035.84;;;3.13;83.31
29239;BME280;16267;48.194;11.546;2023-03-15T08:15:19;96031.66;;;3.31;84.35
29239;BME280;16267;48.194;11.546;2023-03-15T08:17:47;96034.56;;;3.46;85.08
29239;BME280;16267;48.194;11.546;2023-03-15T08:20:14;96035.78;;;3.52;82.17
29239;BME280;16267;48.194;11.546;2023-03-15T08:22:43;96038.41;;;3.48;83.73
29239;BME280;16267;48.194;11.546;2023-03-15T08:25:11;96026.38;;;3.54;81.98
29239;BME280;16267;48.194;11.546;2023-03-15T08:27:38;96033.25;;;3.36;80.05
29239;BME280;16267;48.194;11.546;2023-03-15T08:30:04;96026.97;;;3.44;81.08
29239;BME280;16267;48.194;11.546;2023-03-15T08:32:33;96031.97;;;3.49;81.57
29239;BME280;16267;48.194;11.546;2023-03-15T08:34:58;96036.97;;;3.54;81.82
29239;BME280;16267;48.194;11.546;2023-03-15T08:37:24;96038.97;;;3.57;79.83
29239;BME280;16267;48.194;11.546;2023-03-15T08:39:50;96034.22;;;3.47;79.21
29239;BME280;16267;48.194;11.546;2023-03-15T08:42:26;96035.78;;;3.52;79.29
29239;BME280;16267;48.194;11.546;2023-03-15T08:44:52;96043.72;;;3.29;76.22
29239;BME280;16267;48.194;11.546;2023-03-15T08:47:18;96034.53;;;3.23;77.20
29239;BME280;16267;48.194;11.546;2023-03-15T08:49:43;96029.91;;;3.62;79.46
29239;BME280;16267;48.194;11.546;2023-03-15T08:52:09;96019.63;;;3.80;78.71
29239;BME280;16267;48.194;11.546;2023-03-15T08:54:35;96021.47;;;4.02;78.20
29239;BME280;16267;48.194;11.546;2023-03-15T08:57:01;96017.41;;;4.09;77.73
29239;BME280;16267;48.194;11.546;2023-03-15T08:59:27;96026.50;;;4.08;74.15
29239;BME280;16267;48.194;11.546;2023-03-15T09:01:52;96020.72;;;4.02;73.80
29239;BME280;16267;48.194;11.546;2023-03-15T09:04:18;96026.50;;;3.85;72.63
29239;BME280;16267;48.194;11.546;2023-03-15T09:06:44;96034.94;;;3.90;68.96
29239;BME280;16267;48.194;11.546;2023-03-15T09:09:10;96025.84;;;3.91;70.14
29239;BME280;16267;48.194;11.546;2023-03-15T09:11:36;96031.84;;;4.11;71.97
29239;BME280;16267;48.194;11.546;2023-03-15T09:14:01;96020.16;;;4.42;73.34
29239;BME280;16267;48.194;11.546;2023-03-15T09:16:27;96029.50;;;4.59;72.19
29239;BME280;16267;48.194;11.546;2023-03-15T09:18:53;96035.34;;;4.68;71.35
29239;BME280;16267;48.194;11.546;2023-03-15T09:21:19;96028.66;;;4.82;69.03
29239;BME280;16267;48.194;11.546;2023-03-15T09:23:44;96029.34;;;5.09;71.10
29239;BME280;16267;48.194;11.546;2023-03-15T09:26:10;96027.88;;;5.11;69.02
29239;BME280;16267;48.194;11.546;2023-03-15T09:28:36;96030.75;;;5.29;70.68
29239;BME280;16267;48.194;11.546;2023-03-15T09:31:06;96039.06;;;5.28;66.02
29239;BME280;16267;48.194;11.546;2023-03-15T09:33:32;96024.69;;;5.32;65.89
29239;BME280;16267;48.194;11.546;2023-03-15T09:35:58;96028.34;;;5.58;69.31
29239;BME280;16267;48.194;11.546;2023-03-15T09:38:24;96031.38;;;5.56;67.41
29239;BME280;16267;48.194;11.546;2023-03-15T09:40:50;96034.16;;;5.30;60.80
29239;BME280;16267;48.194;11.546;2023-03-15T09:44:00;96032.16;;;5.23;61.47
29239;BME280;16267;48.194;11.546;2023-03-15T09:46:38;96033.44;;;5.33;61.50
29239;BME280;16267;48.194;11.546;2023-03-15T09:52:42;96038.72;;;5.67;61.73
29239;BME280;16267;48.194;11.546;2023-03-15T09:55:22;96041.66;;;5.58;58.91
29239;BME280;16267;48.194;11.546;2023-03-15T09:57:59;96043.88;;;5.49;58.35
29239;BME280;16267;48.194;11.546;2023-03-15T10:00:43;96045.59;;;5.71;61.91
29239;BME280;16267;48.194;11.546;2023-03-15T10:06:40;96059.28;;;5.70;58.22
29239;BME280;16267;48.194;11.546;2023-03-15T10:09:15;96056.81;;;5.91;60.80
29239;BME280;16267;48.194;11.546;2023-03-15T10:12:08;96059.31;;;6.14;60.94
29239;BME280;16267;48.194;11.546;2023-03-15T10:20:32;96057.06;;;6.16;54.01
29239;BME280;16267;48.194;11.546;2023-03-15T10:25:59;96052.88;;;6.15;53.85
29239;BME280;16267;48.194;11.546;2023-03-15T10:28:29;96047.50;;;6.12;52.62
29239;BME280;16267;48.194;11.546;2023-03-15T10:31:03;96042.00;;;6.42;56.49
29239;BME280;16267;48.194;11.546;2023-03-15T10:33:37;96045.84;;;6.48;53.78
29239;BME280;16267;48.194;11.546;2023-03-15T10:36:17;96039.88;;;6.65;54.85
29239;BME280;16267;48.194;11.546;2023-03-15T10:38:44;96036.81;;;6.70;54.30
29239;BME280;16267;48.194;11.546;2023-03-15T10:41:37;96038.09;;;6.87;55.31
29239;BME280;16267;48.194;11.546;2023-03-15T10:44:22;96045.72;;;6.92;55.89
29239;BME280;16267;48.194;11.546;2023-03-15T10:47:15;96041.50;;;6.88;53.97
29239;BME280;16267;48.194;11.546;2023-03-15T10:49:44;96038.38;;;6.72;50.85
29239;BME280;16267;48.194;11.546;2023-03-15T10:52:28;96025.91;;;6.93;53.93
29239;BME280;16267;48.194;11.546;2023-03-15T10:54:56;96035.06;;;7.00;52.17
29239;BME280;16267;48.194;11.546;2023-03-15T10:57:27;96035.44;;;6.98;52.04
29239;BME280;16267;48.194;11.546;2023-03-15T11:00:02;96031.25;;;7.01;51.02
29239;BME280;16267;48.194;11.546;2023-03-15T11:02:34;96039.09;;;6.65;48.41
29239;BME280;16267;48.194;11.546;2023-03-15T11:07:35;96046.38;;;6.75;49.63
29239;BME280;16267;48.194;11.546;2023-03-15T11:10:04;96031.53;;;6.78;49.42
29239;BME280;16267;48.194;11.546;2023-03-15T11:12:33;96031.16;;;6.76;48.56
29239;BME280;16267;48.194;11.546;2023-03-15T11:15:10;96029.16;;;6.62;46.90
29239;BME280;16267;48.194;11.546;2023-03-15T11:17:48;96027.69;;;6.68;48.48
29239;BME280;16267;48.194;11.546;2023-03-15T11:20:27;96030.22;;;6.46;48.93
29239;BME280;16267;48.194;11.546;2023-03-15T11:23:18;96026.75;;;6.42;47.04
29239;BME280;16267;48.194;11.546;2023-03-15T11:25:45;96028.81;;;6.63;47.21
29239;BME280;16267;48.194;11.546;2023-03-15T11:28:26;96024.28;;;6.78;48.34
29239;BME280;16267;48.194;11.546;2023-03-15T11:30:52;96026.66;;;6.90;47.98
29239;BME280;16267;48.194;11.546;2023-03-15T11:33:51;96028.91;;;6.85;46.83
29239;BME280;16267;48.194;11.546;2023-03-15T11:36:21;96018.72;;;7.01;46.91
29239;BME280;16267;48.194;11.546;2023-03-15T11:38:48;96017.19;;;7.11;45.65
29239;BME280;16267;48.194;11.546;2023-03-15T11:44:42;96006.16;;;7.23;45.38
29239;BME280;16267;48.194;11.546;2023-03-15T11:47:43;95998.22;;;7.37;42.70
29239;BME280;16267;48.194;11.546;2023-03-15T11:50:14;96008.47;;;7.21;42.87
29239;BME280;16267;48.194;11.546;2023-03-15T11:52:40;95998.47;;;6.97;41.25
29239;BME280;16267;48.194;11.546;2023-03-15T11:55:18;96002.75;;;7.19;43.43
29239;BME280;16267;48.194;11.546;2023-03-15T11:57:46;96000.88;;;7.45;44.83
29239;BME280;16267;48.194;11.546;2023-03-15T12:06:33;95984.88;;;7.48;42.98
29239;BME280;16267;48.194;11.546;2023-03-15T12:09:00;95985.28;;;7.72;46.09
29239;BME280;16267;48.194;11.546;2023-03-15T12:16:44;95977.28;;;7.79;42.88
29239;BME280;16267;48.194;11.546;2023-03-15T12:19:20;95978.41;;;7.67;42.78
29239;BME280;16267;48.194;11.546;2023-03-15T12:21:52;95969.25;;;7.61;43.48
29239;BME280;16267;48.194;11.546;2023-03-15T12:24:34;95967.31;;;7.44;42.70
29239;BME280;16267;48.194;11.546;2023-03-15T12:27:05;95973.03;;;7.42;43.42
29239;BME280;16267;48.194;11.546;2023-03-15T12:29:38;95965.44;;;7.51;44.55
29239;BME280;16267;48.194;11.546;2023-03-15T12:32:16;95965.41;;;7.30;42.33
29239;BME280;16267;48.194;11.546;2023-03-15T12:34:55;95967.28;;;7.15;44.08
29239;BME280;16267;48.194;11.546;2023-03-15T12:37:43;95957.00;;;7.28;43.67
29239;BME280;16267;48.194;11.546;2023-03-15T12:56:12;95959.28;;;7.29;43.44
29239;BME280;16267;48.194;11.546;2023-03-15T12:58:45;95951.66;;;7.42;43.57
29239;BME280;16267;48.194;11.546;2023-03-15T13:01:15;95954.69;;;7.23;42.80
29239;BME280;16267;48.194;11.546;2023-03-15T13:03:44;95958.53;;;7.40;44.49
29239;BME280;16267;48.194;11.546;2023-03-15T13:12:23;95957.00;;;7.38;44.23
29239;BME280;16267;48.194;11.546;2023-03-15T13:15:11;95963.53;;;7.48;43.47
29239;BME280;16267;48.194;11.546;2023-03-15T13:17:51;95966.16;;;7.45;42.67
29239;BME280;16267;48.194;11.546;2023-03-15T13:23:27;95968.09;;;7.44;43.08
29239;BME280;16267;48.194;11.546;2023-03-15T13:28:53;95955.50;;;7.45;43.30
29239;BME280;16267;48.194;11.546;2023-03-15T13:31:23;95963.53;;;7.55;43.68
29239;BME280;16267;48.194;11.546;2023-03-15T13:34:20;95955.88;;;7.29;41.90
29239;BME280;16267;48.194;11.546;2023-03-15T13:36:56;95950.56;;;7.61;43.51
29239;BME280;16267;48.194;11.546;2023-03-15T13:39:29;95953.25;;;7.79;44.96
29239;BME280;16267;48.194;11.546;2023-03-15T13:42:25;95955.91;;;7.79;43.65
29239;BME280;16267;48.194;11.546;2023-03-15T13:47:33;95959.31;;;7.76;41.98
29239;BME280;16267;48.194;11.546;2023-03-15T13:50:03;95957.44;;;7.76;42.37
29239;BME280;16267;48.194;11.546;2023-03-15T13:52:30;95954.75;;;7.66;41.10
29239;BME280;16267;48.194;11.546;2023-03-15T13:54:56;95957.41;;;7.48;41.33
29239;BME280;16267;48.194;11.546;2023-03-15T13:57:24;95955.50;;;7.55;42.28
29239;BME280;16267;48.194;11.546;2023-03-15T14:02:34;95958.13;;;7.34;42.00
29239;BME280;16267;48.194;11.546;2023-03-15T14:05:13;95959.72;;;7.46;42.20
29239;BME280;16267;48.194;11.546;2023-03-15T14:07:43;95955.47;;;7.30;42.62
29239;BME280;16267;48.194;11.546;2023-03-15T14:15:56;95966.53;;;7.29;43.42
29239;BME280;16267;48.194;11.546;2023-03-15T14:18:29;95963.84;;;7.22;43.33
29239;BME280;16267;48.194;11.546;2023-03-15T14:20:57;95966.94;;;7.42;44.26
29239;BME280;16267;48.194;11.546;2023-03-15T14:23:26;95964.59;;;7.22;43.38
29239;BME280;16267;48.194;11.546;2023-03-15T14:26:26;95971.09;;;7.28;44.71
29239;BME280;16267;48.194;11.546;2023-03-15T14:28:59;95976.81;;;7.20;43.95
29239;BME280;16267;48.194;11.546;2023-03-15T14:31:36;95970.75;;;7.26;44.80
29239;BME280;16267;48.194;11.546;2023-03-15T14:36:59;95976.44;;;7.21;44.69